Terminal Aerodrome Forecast
Issued by NWS Sterling, VA

Current Version | Previous Version | Graphics & Text | Print | Product List | Glossary On
Versions: 1 2 3 4 5 6 7 8 9 10 11 12 13 14 15 16 17 18 19 20 21
000
FTUS41 KLWX 072336
TAFDCA
TAF
KDCA 072336Z 0800/0824 VRB04KT P6SM SKC
     FM081000 33004KT P6SM BKN030
     FM081600 30006KT P6SM BKN050
     FM081800 29012G20KT P6SM SCT200=

USA.gov is the U.S. government's official web portal to all federal, state and local government web resources and services.